createdAt,value
2023-03-17T00:00:51.661Z,25.00
2023-03-17T00:06:01.011Z,21.00
2023-03-17T00:08:34.506Z,20.80
2023-03-17T00:13:39.134Z,23.40
2023-03-17T00:16:17.772Z,20.40
2023-03-17T00:18:50.013Z,18.80
2023-03-17T00:21:30.090Z,19.60
2023-03-17T00:24:07.023Z,20.20
2023-03-17T00:26:39.205Z,17.80
2023-03-17T00:29:11.796Z,20.40
2023-03-17T00:31:46.062Z,21.30
2023-03-17T00:34:18.876Z,19.30
2023-03-17T00:36:53.128Z,24.30
2023-03-17T00:39:27.536Z,27.60
2023-03-17T00:42:00.146Z,22.70
2023-03-17T00:44:32.848Z,22.10
2023-03-17T00:47:02.660Z,22.10
2023-03-17T00:49:31.757Z,21.60
2023-03-17T00:52:02.733Z,22.90
2023-03-17T00:54:33.427Z,21.70
2023-03-17T00:57:03.073Z,17.90
2023-03-17T00:59:41.443Z,17.60
2023-03-17T01:02:15.319Z,18.50
2023-03-17T01:04:52.872Z,17.00
2023-03-17T01:07:33.147Z,18.00
2023-03-17T01:10:05.757Z,22.00
2023-03-17T01:13:06.367Z,20.30
2023-03-17T01:15:39.322Z,18.30
2023-03-17T01:18:13.490Z,21.60
2023-03-17T01:20:43.850Z,22.90
2023-03-17T01:23:14.672Z,20.60
2023-03-17T01:25:45.845Z,21.10
2023-03-17T01:28:18.398Z,22.50
2023-03-17T01:30:49.707Z,17.50
2023-03-17T01:33:23.069Z,21.80
2023-03-17T01:35:53.563Z,21.60
2023-03-17T01:38:23.234Z,32.70
2023-03-17T01:40:54.374Z,30.90
2023-03-17T01:43:31.169Z,24.40
2023-03-17T01:46:39.781Z,26.90
2023-03-17T01:49:09.994Z,28.90
2023-03-17T01:51:40.910Z,20.60
2023-03-17T01:54:17.683Z,21.20
2023-03-17T01:56:51.353Z,17.60
2023-03-17T01:59:28.192Z,19.80
2023-03-17T02:02:06.737Z,20.20
2023-03-17T02:04:39.837Z,23.10
2023-03-17T02:07:10.627Z,22.00
2023-03-17T02:09:45.039Z,26.90
2023-03-17T02:12:16.629Z,34.10
2023-03-17T02:14:49.475Z,23.90
2023-03-17T02:17:20.251Z,21.10
2023-03-17T02:19:54.855Z,29.60
2023-03-17T02:22:25.506Z,14.80
2023-03-17T02:25:00.940Z,15.80
2023-03-17T02:27:39.175Z,19.90
2023-03-17T02:30:12.907Z,30.90
2023-03-17T02:32:46.955Z,25.00
2023-03-17T02:35:16.264Z,21.70
2023-03-17T02:37:49.357Z,19.90
2023-03-17T02:40:19.933Z,18.00
2023-03-17T02:42:50.181Z,22.60
2023-03-17T02:45:21.012Z,21.80
2023-03-17T02:47:53.051Z,16.50
2023-03-17T02:50:25.390Z,19.70
2023-03-17T02:52:58.316Z,17.10
2023-03-17T02:55:30.780Z,19.50
2023-03-17T02:58:03.539Z,22.70
2023-03-17T03:00:35.324Z,26.50
2023-03-17T03:03:05.376Z,18.20
2023-03-17T03:05:39.293Z,17.40
2023-03-17T03:08:11.717Z,17.20
2023-03-17T03:10:42.263Z,15.40
2023-03-17T03:13:15.188Z,13.50
2023-03-17T03:15:45.395Z,14.60
2023-03-17T03:18:17.227Z,16.00
2023-03-17T03:20:47.932Z,15.00
2023-03-17T03:23:18.588Z,15.90
2023-03-17T03:25:49.218Z,15.70
2023-03-17T03:28:19.593Z,16.30
2023-03-17T03:30:48.877Z,17.30
2023-03-17T03:33:20.483Z,17.80
2023-03-17T03:35:51.732Z,37.90
2023-03-17T03:38:21.642Z,24.30
2023-03-17T03:40:52.887Z,21.90
2023-03-17T03:43:24.041Z,17.80
2023-03-17T03:45:55.045Z,15.80
2023-03-17T03:48:26.175Z,28.20
2023-03-17T03:51:01.733Z,29.60
2023-03-17T03:53:36.128Z,29.90
2023-03-17T03:56:05.717Z,19.80
2023-03-17T03:58:36.087Z,17.80
2023-03-17T04:01:07.808Z,17.50
2023-03-17T04:03:38.976Z,23.60
2023-03-17T04:06:09.111Z,24.30
2023-03-17T04:08:42.314Z,27.60
2023-03-17T04:11:11.726Z,20.40
2023-03-17T04:13:44.672Z,18.70
2023-03-17T04:16:17.888Z,20.40
2023-03-17T04:18:48.395Z,22.30
2023-03-17T04:21:19.476Z,24.70
2023-03-17T04:23:50.673Z,27.70
2023-03-17T04:26:23.736Z,26.30
2023-03-17T04:28:53.425Z,40.70
2023-03-17T04:31:27.299Z,30.60
2023-03-17T04:33:58.441Z,36.60
2023-03-17T04:36:31.036Z,20.80
2023-03-17T04:39:04.331Z,22.40
2023-03-17T04:41:34.983Z,24.10
2023-03-17T04:44:06.457Z,42.10
2023-03-17T04:46:38.853Z,43.50
2023-03-17T04:49:11.057Z,27.40
2023-03-17T04:51:42.765Z,81.80
2023-03-17T04:54:14.400Z,26.50
2023-03-17T04:56:47.084Z,27.50
2023-03-17T04:59:17.271Z,27.10
2023-03-17T05:01:50.320Z,28.80
2023-03-17T05:04:31.089Z,25.10
2023-03-17T05:07:04.250Z,30.20
2023-03-17T05:09:33.922Z,25.20
2023-03-17T05:12:04.715Z,27.50
2023-03-17T05:14:35.856Z,23.80
2023-03-17T05:17:06.711Z,22.80
2023-03-17T05:19:40.586Z,28.00
2023-03-17T05:22:11.469Z,33.20
2023-03-17T05:24:42.259Z,30.90
2023-03-17T05:27:12.672Z,29.10
2023-03-17T05:29:44.413Z,23.40
2023-03-17T05:32:14.030Z,39.80
2023-03-17T05:34:45.945Z,30.90
2023-03-17T05:37:18.230Z,35.30
2023-03-17T05:39:48.470Z,30.30
2023-03-17T05:42:23.351Z,30.70
2023-03-17T05:44:55.842Z,27.10
2023-03-17T05:47:28.321Z,46.20
2023-03-17T05:50:01.556Z,26.90
2023-03-17T05:52:30.671Z,25.60
2023-03-17T05:55:00.676Z,23.80
2023-03-17T05:57:31.325Z,27.40
2023-03-17T06:00:01.931Z,26.10
2023-03-17T06:02:36.739Z,40.40
2023-03-17T06:05:09.264Z,31.80
2023-03-17T06:07:51.952Z,30.60
2023-03-17T06:10:25.907Z,27.40
2023-03-17T06:12:55.547Z,23.60
2023-03-17T06:15:25.397Z,23.80
2023-03-17T06:17:57.361Z,30.30
2023-03-17T06:20:27.074Z,28.60
2023-03-17T06:23:04.385Z,24.20
2023-03-17T06:25:37.992Z,26.10
2023-03-17T06:28:08.094Z,28.50
2023-03-17T06:30:40.752Z,23.40
2023-03-17T06:33:11.374Z,32.50
2023-03-17T06:35:40.991Z,32.00
2023-03-17T06:38:12.315Z,43.20
2023-03-17T06:40:44.116Z,78.60
2023-03-17T06:43:14.180Z,48.80
2023-03-17T06:45:45.010Z,206.00
2023-03-17T06:48:15.255Z,247.60
2023-03-17T06:50:51.642Z,160.50
2023-03-17T06:53:22.278Z,86.40
2023-03-17T06:55:51.826Z,24.70
2023-03-17T06:58:22.976Z,27.10
2023-03-17T07:00:55.334Z,32.60
2023-03-17T07:03:28.092Z,26.80
2023-03-17T07:06:00.266Z,29.50
2023-03-17T07:08:31.536Z,34.30
2023-03-17T07:11:04.955Z,24.80
2023-03-17T07:13:37.600Z,22.10
2023-03-17T07:16:09.019Z,24.30
2023-03-17T07:18:37.969Z,28.30
2023-03-17T07:21:07.502Z,40.30
2023-03-17T07:23:37.988Z,19.10
2023-03-17T07:26:07.094Z,30.60
2023-03-17T07:28:37.198Z,321.20
2023-03-17T07:31:10.979Z,237.10
2023-03-17T07:33:43.265Z,340.10
2023-03-17T07:36:16.541Z,326.90
2023-03-17T07:38:47.621Z,427.60
2023-03-17T07:41:17.221Z,330.50
2023-03-17T07:43:49.143Z,232.80
2023-03-17T07:46:20.011Z,130.90
2023-03-17T07:48:51.496Z,64.50
2023-03-17T07:51:23.833Z,36.30
2023-03-17T07:54:03.915Z,43.10
2023-03-17T07:56:36.448Z,67.70
2023-03-17T07:59:12.425Z,58.90
2023-03-17T08:01:45.320Z,72.80
2023-03-17T08:04:16.342Z,25.30
2023-03-17T08:06:47.176Z,21.00
2023-03-17T08:09:17.401Z,21.20
2023-03-17T08:11:49.461Z,20.70
2023-03-17T08:14:22.395Z,23.60
2023-03-17T08:16:51.734Z,22.60
2023-03-17T08:19:22.701Z,19.90
2023-03-17T08:21:54.786Z,25.20
2023-03-17T08:24:27.579Z,25.80
2023-03-17T08:26:59.806Z,20.20
2023-03-17T08:29:32.007Z,17.90
2023-03-17T08:32:06.016Z,22.30
2023-03-17T08:34:37.638Z,21.50
2023-03-17T08:37:11.329Z,18.60
2023-03-17T08:39:41.417Z,16.70
2023-03-17T08:42:12.382Z,18.10
2023-03-17T08:44:44.697Z,16.60
2023-03-17T08:47:13.938Z,20.00
2023-03-17T08:49:44.185Z,17.00
2023-03-17T08:52:15.536Z,17.40
2023-03-17T08:54:47.596Z,16.90
2023-03-17T08:57:18.540Z,18.50
2023-03-17T08:59:49.025Z,15.80
2023-03-17T09:02:20.804Z,15.90
2023-03-17T09:04:51.848Z,16.10
2023-03-17T09:07:23.011Z,16.60
2023-03-17T09:09:53.321Z,17.30
2023-03-17T09:12:53.003Z,15.90
2023-03-17T09:15:25.802Z,14.10
2023-03-17T09:17:57.945Z,13.50
2023-03-17T09:20:27.731Z,13.90
2023-03-17T09:22:58.493Z,15.00
2023-03-17T09:25:29.261Z,12.10
2023-03-17T09:27:59.560Z,13.50
2023-03-17T09:30:32.452Z,13.60
2023-03-17T09:33:04.487Z,12.90
2023-03-17T09:35:37.528Z,11.90
2023-03-17T09:38:11.951Z,13.40
2023-03-17T09:41:35.877Z,13.30
2023-03-17T09:44:13.866Z,12.40
2023-03-17T09:47:11.228Z,10.50
2023-03-17T09:49:52.793Z,10.00
2023-03-17T09:52:29.633Z,20.50
2023-03-17T09:55:01.970Z,24.10
2023-03-17T09:57:40.955Z,15.60
2023-03-17T10:00:23.580Z,11.00
2023-03-17T10:02:56.027Z,25.90
2023-03-17T10:05:29.725Z,9.80
2023-03-17T10:08:31.532Z,9.90
2023-03-17T10:14:34.117Z,39.60
2023-03-17T10:20:30.089Z,10.30
2023-03-17T10:23:08.222Z,10.20
2023-03-17T10:25:38.840Z,9.80
2023-03-17T10:28:20.907Z,15.30
2023-03-17T10:30:52.000Z,9.90
2023-03-17T10:33:24.504Z,9.50
2023-03-17T10:35:55.017Z,10.70
2023-03-17T10:38:28.063Z,45.10
2023-03-17T10:41:02.598Z,178.10
2023-03-17T10:43:41.721Z,24.00
2023-03-17T10:46:31.842Z,30.40
2023-03-17T10:49:17.165Z,9.00
2023-03-17T10:51:49.570Z,9.90
2023-03-17T10:54:21.504Z,11.30
2023-03-17T10:57:02.485Z,11.10
2023-03-17T10:59:44.776Z,10.00
2023-03-17T11:02:37.725Z,10.70
2023-03-17T11:05:26.069Z,8.10
2023-03-17T11:08:08.913Z,10.70
2023-03-17T11:10:40.798Z,9.40
2023-03-17T11:13:36.647Z,8.90
2023-03-17T11:16:25.124Z,8.50
2023-03-17T11:19:00.879Z,7.90
2023-03-17T11:21:35.203Z,7.10
2023-03-17T11:24:41.193Z,8.60
2023-03-17T11:27:19.654Z,9.20
2023-03-17T11:30:20.412Z,7.60
2023-03-17T11:33:04.961Z,43.60
2023-03-17T11:35:44.569Z,39.60
2023-03-17T11:38:17.206Z,447.90
2023-03-17T11:40:55.220Z,13.30
2023-03-17T11:44:29.736Z,9.00
2023-03-17T11:47:12.684Z,67.40
2023-03-17T11:49:51.462Z,8.90
2023-03-17T11:53:21.372Z,10.20
2023-03-17T11:56:14.514Z,11.40
2023-03-17T11:58:49.785Z,10.40
2023-03-17T12:01:28.985Z,9.40
2023-03-17T12:04:17.096Z,8.80
2023-03-17T12:07:24.796Z,9.00
2023-03-17T12:10:29.804Z,13.40
2023-03-17T12:13:07.606Z,8.70
2023-03-17T12:15:45.964Z,8.20
2023-03-17T12:18:28.878Z,41.10
2023-03-17T12:21:02.367Z,7.30
2023-03-17T12:23:38.737Z,7.60
2023-03-17T12:26:16.372Z,9.00
2023-03-17T12:29:53.164Z,15.60
2023-03-17T12:32:46.713Z,7.10
2023-03-17T12:35:26.380Z,22.90
2023-03-17T12:37:59.141Z,61.70
2023-03-17T12:40:43.369Z,85.60
2023-03-17T12:43:48.787Z,167.00
2023-03-17T12:46:49.187Z,84.40
2023-03-17T12:49:40.549Z,9.80
2023-03-17T12:52:26.549Z,8.30
2023-03-17T12:55:01.755Z,7.40
2023-03-17T12:57:49.741Z,59.70
2023-03-17T13:00:31.098Z,22.10
2023-03-17T13:03:25.777Z,7.70
2023-03-17T13:08:37.842Z,34.10
2023-03-17T13:11:27.211Z,33.70
2023-03-17T13:14:09.194Z,7.40
2023-03-17T13:16:46.193Z,6.20
2023-03-17T13:19:25.921Z,9.40
2023-03-17T13:22:03.955Z,8.10
2023-03-17T13:24:49.002Z,13.30
2023-03-17T13:32:59.903Z,10.00
2023-03-17T13:35:59.209Z,7.40
2023-03-17T13:38:34.678Z,8.90
2023-03-17T13:41:32.586Z,19.70
2023-03-17T13:44:33.234Z,28.20
2023-03-17T13:47:34.151Z,12.10
2023-03-17T13:50:18.294Z,13.10
2023-03-17T13:52:48.905Z,8.00
2023-03-17T13:55:19.888Z,20.40
2023-03-17T13:58:11.566Z,35.10
2023-03-17T14:00:54.080Z,19.90
2023-03-17T14:03:43.169Z,91.00
2023-03-17T14:06:15.258Z,11.40
2023-03-17T14:08:47.298Z,7.20
2023-03-17T14:11:38.401Z,9.40
2023-03-17T14:14:32.670Z,11.00
2023-03-17T14:20:20.219Z,12.50
2023-03-17T14:23:00.297Z,10.20
2023-03-17T14:25:35.805Z,12.50
2023-03-17T14:28:11.372Z,10.40
2023-03-17T14:30:55.912Z,11.00
2023-03-17T14:33:38.610Z,20.50
2023-03-17T14:36:14.173Z,15.60
2023-03-17T14:38:49.633Z,98.40
2023-03-17T14:41:25.014Z,182.40
2023-03-17T14:43:58.836Z,38.30
2023-03-17T14:46:41.550Z,58.80
2023-03-17T14:49:23.087Z,156.60
2023-03-17T14:51:57.683Z,68.10
2023-03-17T14:54:34.015Z,120.50
2023-03-17T14:57:08.170Z,100.90
2023-03-17T14:59:42.955Z,85.00
2023-03-17T15:02:39.287Z,31.00
2023-03-17T15:05:38.605Z,52.10
2023-03-17T15:08:36.244Z,19.70
2023-03-17T15:11:09.289Z,12.10
2023-03-17T15:13:39.661Z,35.70
2023-03-17T15:16:32.153Z,16.40
2023-03-17T15:19:20.192Z,25.40
2023-03-17T15:21:52.169Z,16.10
2023-03-17T15:24:41.065Z,11.70
2023-03-17T15:27:19.294Z,13.60
2023-03-17T15:29:50.103Z,36.60
2023-03-17T15:32:23.930Z,11.20
2023-03-17T15:34:57.597Z,26.60
2023-03-17T15:37:32.404Z,7.90
2023-03-17T15:40:05.989Z,8.50
2023-03-17T15:45:08.675Z,10.10
2023-03-17T15:47:40.460Z,12.60
2023-03-17T15:50:21.578Z,15.80
2023-03-17T15:52:56.402Z,26.50
2023-03-17T15:55:31.947Z,23.50
2023-03-17T15:58:03.490Z,8.00
2023-03-17T16:00:36.827Z,10.50
2023-03-17T16:03:21.049Z,29.40
2023-03-17T16:05:51.894Z,26.90
2023-03-17T16:08:25.363Z,32.00
2023-03-17T16:10:56.180Z,12.30
2023-03-17T16:13:31.143Z,13.30
2023-03-17T16:16:05.863Z,17.90
2023-03-17T16:18:39.486Z,7.90
2023-03-17T16:21:10.419Z,10.30
2023-03-17T16:23:41.985Z,8.80
2023-03-17T16:26:16.036Z,14.90
2023-03-17T16:28:48.275Z,53.20
2023-03-17T16:31:21.420Z,9.40
2023-03-17T16:33:51.551Z,13.80
2023-03-17T16:36:25.962Z,10.00
2023-03-17T16:38:56.230Z,8.70
2023-03-17T16:41:28.020Z,8.70
2023-03-17T16:44:02.696Z,29.00
2023-03-17T16:46:35.488Z,84.10
2023-03-17T16:49:07.011Z,98.00
2023-03-17T16:51:40.329Z,88.00
2023-03-17T16:54:11.993Z,40.00
2023-03-17T16:56:44.631Z,16.90
2023-03-17T16:59:21.632Z,32.90
2023-03-17T17:01:52.948Z,37.50
2023-03-17T17:04:24.996Z,35.90
2023-03-17T17:06:58.833Z,18.40
2023-03-17T17:09:29.843Z,17.20
2023-03-17T17:12:01.377Z,14.30
2023-03-17T17:14:36.153Z,12.70
2023-03-17T17:17:05.732Z,24.10
2023-03-17T17:19:36.272Z,11.50
2023-03-17T17:22:08.313Z,21.20
2023-03-17T17:24:38.231Z,25.60
2023-03-17T17:27:12.434Z,19.70
2023-03-17T17:29:43.034Z,37.20
2023-03-17T17:32:13.915Z,12.00
2023-03-17T17:34:45.132Z,12.70
2023-03-17T17:37:18.336Z,13.80
2023-03-17T17:39:50.778Z,10.90
2023-03-17T17:42:22.830Z,35.50
2023-03-17T17:44:54.464Z,15.30
2023-03-17T17:47:27.722Z,14.40
2023-03-17T17:50:00.635Z,17.30
2023-03-17T17:52:31.603Z,23.80
2023-03-17T17:55:05.334Z,15.50
2023-03-17T17:57:37.502Z,13.10
2023-03-17T18:00:11.973Z,25.40
2023-03-17T18:02:42.042Z,12.80
2023-03-17T18:05:14.987Z,57.80
2023-03-17T18:07:48.139Z,20.60
2023-03-17T18:10:24.561Z,13.20
2023-03-17T18:13:00.529Z,20.40
2023-03-17T18:15:30.801Z,16.00
2023-03-17T18:18:02.874Z,28.50
2023-03-17T18:20:36.432Z,12.90
2023-03-17T18:23:15.752Z,17.50
2023-03-17T18:25:47.119Z,39.60
2023-03-17T18:28:18.457Z,19.50
2023-03-17T18:30:49.241Z,14.70
2023-03-17T18:33:21.490Z,21.10
2023-03-17T18:35:55.566Z,13.50
2023-03-17T18:40:59.237Z,32.20
2023-03-17T18:43:30.578Z,18.60
2023-03-17T18:46:02.391Z,34.60
2023-03-17T18:48:37.350Z,34.10
2023-03-17T18:51:09.285Z,25.90
2023-03-17T18:53:40.667Z,19.30
2023-03-17T18:56:11.657Z,15.00
2023-03-17T18:58:46.089Z,14.70
2023-03-17T19:01:20.181Z,21.30
2023-03-17T19:03:54.732Z,35.70
2023-03-17T19:06:28.029Z,25.70
2023-03-17T19:09:00.769Z,27.00
2023-03-17T19:11:33.423Z,19.30
2023-03-17T19:14:05.709Z,30.30
2023-03-17T19:16:43.609Z,23.20
2023-03-17T19:19:19.448Z,38.60
2023-03-17T19:21:53.787Z,31.90
2023-03-17T19:24:25.486Z,19.40
2023-03-17T19:26:57.168Z,47.00
2023-03-17T19:29:35.322Z,25.50
2023-03-17T19:32:08.421Z,25.40
2023-03-17T19:34:43.016Z,35.00
2023-03-17T19:37:16.595Z,23.20
2023-03-17T19:39:48.232Z,17.70
2023-03-17T19:42:19.616Z,34.50
2023-03-17T19:44:52.668Z,17.90
2023-03-17T19:47:31.319Z,26.80
2023-03-17T19:50:06.857Z,24.70
2023-03-17T19:52:38.606Z,24.70
2023-03-17T19:55:13.769Z,19.60
2023-03-17T19:57:46.191Z,17.40
2023-03-17T20:00:17.787Z,18.50
2023-03-17T20:02:50.149Z,23.50
2023-03-17T20:05:21.721Z,18.40
2023-03-17T20:07:53.282Z,33.30
2023-03-17T20:10:23.696Z,26.60
2023-03-17T20:12:59.447Z,29.60
2023-03-17T20:15:32.908Z,23.00
2023-03-17T20:18:09.093Z,25.90
2023-03-17T20:20:41.711Z,24.20
2023-03-17T20:23:13.876Z,60.00
2023-03-17T20:25:45.394Z,106.60
2023-03-17T20:28:17.959Z,95.20
2023-03-17T20:30:51.243Z,101.80
2023-03-17T20:33:22.049Z,79.70
2023-03-17T20:35:54.078Z,41.30
2023-03-17T20:38:26.500Z,86.80
2023-03-17T20:41:13.426Z,88.00
2023-03-17T20:43:44.769Z,156.10
2023-03-17T20:46:21.750Z,37.60
2023-03-17T20:48:59.839Z,51.70
2023-03-17T20:51:33.431Z,71.80
2023-03-17T20:54:07.179Z,48.90
2023-03-17T20:56:38.451Z,45.00
2023-03-17T20:59:12.831Z,74.50
2023-03-17T21:01:46.894Z,48.30
2023-03-17T21:04:18.732Z,51.40
2023-03-17T21:06:50.557Z,23.00
2023-03-17T21:09:22.534Z,13.60
2023-03-17T21:11:57.169Z,17.50
2023-03-17T21:14:34.826Z,13.10
2023-03-17T21:17:05.898Z,15.00
2023-03-17T21:19:37.366Z,23.90
2023-03-17T21:22:13.073Z,34.70
2023-03-17T21:24:49.021Z,17.50
2023-03-17T21:27:22.243Z,14.50
2023-03-17T21:29:53.163Z,45.00
2023-03-17T21:32:27.300Z,20.40
2023-03-17T21:34:59.394Z,18.90
2023-03-17T21:37:33.125Z,11.70
2023-03-17T21:40:07.625Z,15.20
2023-03-17T21:45:13.129Z,11.50
2023-03-17T21:47:45.223Z,15.20
2023-03-17T21:50:19.369Z,26.80
2023-03-17T21:52:52.120Z,24.40
2023-03-17T21:55:26.020Z,21.70
2023-03-17T21:57:57.221Z,20.70
2023-03-17T22:00:35.982Z,39.10
2023-03-17T22:03:17.088Z,12.40
2023-03-17T22:05:48.351Z,11.90
2023-03-17T22:08:23.877Z,12.60
2023-03-17T22:10:54.450Z,12.50
2023-03-17T22:13:24.918Z,14.60
2023-03-17T22:15:56.798Z,13.00
2023-03-17T22:18:27.559Z,17.30
2023-03-17T22:20:59.350Z,16.00
2023-03-17T22:23:30.797Z,26.60
2023-03-17T22:26:03.286Z,14.10
2023-03-17T22:28:33.228Z,14.70
2023-03-17T22:31:11.731Z,12.30
2023-03-17T22:33:43.090Z,13.60
2023-03-17T22:36:14.686Z,11.90
2023-03-17T22:38:48.392Z,11.30
2023-03-17T22:41:21.098Z,51.90
2023-03-17T22:43:54.931Z,18.60
2023-03-17T22:46:25.824Z,17.50
2023-03-17T22:48:57.089Z,12.10
2023-03-17T22:51:28.778Z,11.10
2023-03-17T22:53:58.840Z,12.70
2023-03-17T22:56:30.547Z,12.80
2023-03-17T22:59:03.020Z,14.60
2023-03-17T23:01:32.188Z,14.80
2023-03-17T23:04:04.601Z,17.60
2023-03-17T23:06:38.267Z,13.70
2023-03-17T23:09:08.408Z,10.40
2023-03-17T23:11:40.262Z,12.30
2023-03-17T23:14:11.698Z,14.10
2023-03-17T23:16:44.261Z,13.70
2023-03-17T23:19:16.989Z,11.20
2023-03-17T23:21:47.734Z,21.30
2023-03-17T23:24:20.271Z,19.60
2023-03-17T23:26:51.751Z,15.70
2023-03-17T23:29:25.791Z,11.20
2023-03-17T23:31:56.779Z,12.80
2023-03-17T23:34:27.390Z,18.80
2023-03-17T23:37:00.268Z,13.30
2023-03-17T23:39:32.008Z,23.70
2023-03-17T23:42:01.986Z,12.10
2023-03-17T23:44:35.834Z,10.70
2023-03-17T23:47:05.856Z,12.40
2023-03-17T23:49:35.331Z,20.50
2023-03-17T23:52:08.385Z,12.70
2023-03-17T23:54:42.037Z,11.90
2023-03-17T23:57:13.097Z,12.50
2023-03-17T23:59:44.178Z,12.60
